sensor_id;sensor_type;location;lat;lon;timestamp;temperature;humidity
25622;DHT22;13487;39.360;22.962;2022-10-26T00:00:26;16.60;99.90
25622;DHT22;13487;39.360;22.962;2022-10-26T00:02:53;16.60;99.90
25622;DHT22;13487;39.360;22.962;2022-10-26T00:05:20;16.50;99.90
25622;DHT22;13487;39.360;22.962;2022-10-26T00:07:47;16.70;99.90
25622;DHT22;13487;39.360;22.962;2022-10-26T00:10:12;16.60;99.90
25622;DHT22;13487;39.360;22.962;2022-10-26T00:12:39;16.70;99.90
25622;DHT22;13487;39.360;22.962;2022-10-26T00:15:05;16.70;99.90
25622;DHT22;13487;39.360;22.962;2022-10-26T00:17:31;16.70;99.90
25622;DHT22;13487;39.360;22.962;2022-10-26T00:19:57;16.70;99.90
25622;DHT22;13487;39.360;22.962;2022-10-26T00:22:25;16.70;99.90
25622;DHT22;13487;39.360;22.962;2022-10-26T00:24:51;16.70;99.90
25622;DHT22;13487;39.360;22.962;2022-10-26T00:27:18;16.50;99.90
25622;DHT22;13487;39.360;22.962;2022-10-26T00:29:44;16.40;99.90
25622;DHT22;13487;39.360;22.962;2022-10-26T00:32:10;16.30;99.90
25622;DHT22;13487;39.360;22.962;2022-10-26T00:34:36;16.30;99.90
25622;DHT22;13487;39.360;22.962;2022-10-26T00:37:01;16.20;99.90
25622;DHT22;13487;39.360;22.962;2022-10-26T00:39:27;16.20;99.90
25622;DHT22;13487;39.360;22.962;2022-10-26T00:41:53;16.40;99.90
25622;DHT22;13487;39.360;22.962;2022-10-26T00:44:58;16.40;99.90
25622;DHT22;13487;39.360;22.962;2022-10-26T00:47:56;16.10;99.90
25622;DHT22;13487;39.360;22.962;2022-10-26T00:50:36;16.10;99.90
25622;DHT22;13487;39.360;22.962;2022-10-26T00:53:04;16.10;99.90
25622;DHT22;13487;39.360;22.962;2022-10-26T00:55:37;16.00;99.90
25622;DHT22;13487;39.360;22.962;2022-10-26T00:58:06;16.10;99.90
25622;DHT22;13487;39.360;22.962;2022-10-26T01:00:33;16.20;99.90
25622;DHT22;13487;39.360;22.962;2022-10-26T01:03:01;16.30;99.90
25622;DHT22;13487;39.360;22.962;2022-10-26T01:05:29;16.20;99.90
25622;DHT22;13487;39.360;22.962;2022-10-26T01:07:55;16.10;99.90
25622;DHT22;13487;39.360;22.962;2022-10-26T01:10:23;15.90;99.90
25622;DHT22;13487;39.360;22.962;2022-10-26T01:12:50;16.00;99.90
25622;DHT22;13487;39.360;22.962;2022-10-26T01:15:17;16.10;99.90
25622;DHT22;13487;39.360;22.962;2022-10-26T01:18:09;16.20;99.90
25622;DHT22;13487;39.360;22.962;2022-10-26T01:23:57;16.20;99.90
25622;DHT22;13487;39.360;22.962;2022-10-26T01:29:28;16.10;99.90
25622;DHT22;13487;39.360;22.962;2022-10-26T01:32:08;16.10;99.90
25622;DHT22;13487;39.360;22.962;2022-10-26T01:34:45;16.10;99.90
25622;DHT22;13487;39.360;22.962;2022-10-26T01:37:22;16.10;99.90
25622;DHT22;13487;39.360;22.962;2022-10-26T01:39:57;16.20;99.90
25622;DHT22;13487;39.360;22.962;2022-10-26T01:42:25;16.30;99.90
25622;DHT22;13487;39.360;22.962;2022-10-26T01:45:02;16.40;99.90
25622;DHT22;13487;39.360;22.962;2022-10-26T01:47:30;16.40;99.90
25622;DHT22;13487;39.360;22.962;2022-10-26T01:49:58;16.40;99.90
25622;DHT22;13487;39.360;22.962;2022-10-26T01:52:25;16.30;99.90
25622;DHT22;13487;39.360;22.962;2022-10-26T01:55:06;16.30;99.90
25622;DHT22;13487;39.360;22.962;2022-10-26T01:57:33;16.30;99.90
25622;DHT22;13487;39.360;22.962;2022-10-26T02:00:09;16.20;99.90
25622;DHT22;13487;39.360;22.962;2022-10-26T02:02:37;16.10;99.90
25622;DHT22;13487;39.360;22.962;2022-10-26T02:05:28;16.10;99.90
25622;DHT22;13487;39.360;22.962;2022-10-26T02:15:53;16.30;99.90
25622;DHT22;13487;39.360;22.962;2022-10-26T02:18:33;16.10;99.90
25622;DHT22;13487;39.360;22.962;2022-10-26T02:21:06;16.10;99.90
25622;DHT22;13487;39.360;22.962;2022-10-26T02:23:37;16.30;99.90
25622;DHT22;13487;39.360;22.962;2022-10-26T02:26:06;16.40;99.90
25622;DHT22;13487;39.360;22.962;2022-10-26T02:28:36;16.40;99.90
25622;DHT22;13487;39.360;22.962;2022-10-26T02:31:05;16.30;99.90
25622;DHT22;13487;39.360;22.962;2022-10-26T02:33:39;16.40;99.90
25622;DHT22;13487;39.360;22.962;2022-10-26T02:36:09;16.70;99.90
25622;DHT22;13487;39.360;22.962;2022-10-26T02:38:37;16.60;99.90
25622;DHT22;13487;39.360;22.962;2022-10-26T02:41:04;16.40;99.90
25622;DHT22;13487;39.360;22.962;2022-10-26T02:43:35;16.30;99.90
25622;DHT22;13487;39.360;22.962;2022-10-26T02:46:06;16.50;99.90
25622;DHT22;13487;39.360;22.962;2022-10-26T02:48:34;16.50;99.90
25622;DHT22;13487;39.360;22.962;2022-10-26T02:53:38;16.30;99.90
25622;DHT22;13487;39.360;22.962;2022-10-26T02:56:12;16.30;99.90
25622;DHT22;13487;39.360;22.962;2022-10-26T02:58:45;16.40;99.90
25622;DHT22;13487;39.360;22.962;2022-10-26T03:01:12;16.40;99.90
25622;DHT22;13487;39.360;22.962;2022-10-26T03:03:38;16.40;99.90
25622;DHT22;13487;39.360;22.962;2022-10-26T03:06:04;16.30;99.90
25622;DHT22;13487;39.360;22.962;2022-10-26T03:08:30;16.10;99.90
25622;DHT22;13487;39.360;22.962;2022-10-26T03:10:56;16.10;99.90
25622;DHT22;13487;39.360;22.962;2022-10-26T03:13:22;16.20;99.90
25622;DHT22;13487;39.360;22.962;2022-10-26T03:15:48;16.20;99.90
25622;DHT22;13487;39.360;22.962;2022-10-26T03:18:14;16.00;99.90
25622;DHT22;13487;39.360;22.962;2022-10-26T03:20:43;15.90;99.90
25622;DHT22;13487;39.360;22.962;2022-10-26T03:23:09;15.90;99.90
25622;DHT22;13487;39.360;22.962;2022-10-26T03:25:35;15.90;99.90
25622;DHT22;13487;39.360;22.962;2022-10-26T03:28:03;16.00;99.90
25622;DHT22;13487;39.360;22.962;2022-10-26T03:30:29;15.80;99.90
25622;DHT22;13487;39.360;22.962;2022-10-26T03:32:55;15.60;99.90
25622;DHT22;13487;39.360;22.962;2022-10-26T03:35:21;15.50;99.90
25622;DHT22;13487;39.360;22.962;2022-10-26T03:37:47;15.50;99.90
25622;DHT22;13487;39.360;22.962;2022-10-26T03:40:13;15.60;99.90
25622;DHT22;13487;39.360;22.962;2022-10-26T03:42:39;15.50;99.90
25622;DHT22;13487;39.360;22.962;2022-10-26T03:45:06;15.50;99.90
25622;DHT22;13487;39.360;22.962;2022-10-26T03:47:32;15.60;99.90
25622;DHT22;13487;39.360;22.962;2022-10-26T03:49:58;15.70;99.90
25622;DHT22;13487;39.360;22.962;2022-10-26T03:52:24;15.80;99.90
25622;DHT22;13487;39.360;22.962;2022-10-26T03:54:50;15.70;99.90
25622;DHT22;13487;39.360;22.962;2022-10-26T03:57:16;15.70;99.90
25622;DHT22;13487;39.360;22.962;2022-10-26T03:59:42;15.60;99.90
25622;DHT22;13487;39.360;22.962;2022-10-26T04:02:08;15.70;99.90
25622;DHT22;13487;39.360;22.962;2022-10-26T04:04:36;15.80;99.90
25622;DHT22;13487;39.360;22.962;2022-10-26T04:07:02;15.60;99.90
25622;DHT22;13487;39.360;22.962;2022-10-26T04:09:28;15.60;99.90
25622;DHT22;13487;39.360;22.962;2022-10-26T04:11:53;15.60;99.90
25622;DHT22;13487;39.360;22.962;2022-10-26T04:14:19;15.60;99.90
25622;DHT22;13487;39.360;22.962;2022-10-26T04:16:45;15.40;99.90
25622;DHT22;13487;39.360;22.962;2022-10-26T04:19:11;15.40;99.90
25622;DHT22;13487;39.360;22.962;2022-10-26T04:21:36;15.50;99.90
25622;DHT22;13487;39.360;22.962;2022-10-26T04:24:02;15.50;99.90
25622;DHT22;13487;39.360;22.962;2022-10-26T04:26:28;15.50;99.90
25622;DHT22;13487;39.360;22.962;2022-10-26T04:28:54;15.60;99.90
25622;DHT22;13487;39.360;22.962;2022-10-26T04:31:20;15.70;99.90
25622;DHT22;13487;39.360;22.962;2022-10-26T04:33:45;15.80;99.90
25622;DHT22;13487;39.360;22.962;2022-10-26T04:36:11;16.00;99.90
25622;DHT22;13487;39.360;22.962;2022-10-26T04:38:37;16.00;99.90
25622;DHT22;13487;39.360;22.962;2022-10-26T04:41:03;15.90;99.90
25622;DHT22;13487;39.360;22.962;2022-10-26T04:43:28;15.80;99.90
25622;DHT22;13487;39.360;22.962;2022-10-26T04:45:55;15.60;99.90
25622;DHT22;13487;39.360;22.962;2022-10-26T04:48:21;15.50;99.90
25622;DHT22;13487;39.360;22.962;2022-10-26T04:50:47;15.50;99.90
25622;DHT22;13487;39.360;22.962;2022-10-26T04:53:13;15.50;99.90
25622;DHT22;13487;39.360;22.962;2022-10-26T04:55:39;15.50;99.90
25622;DHT22;13487;39.360;22.962;2022-10-26T04:58:05;15.80;99.90
25622;DHT22;13487;39.360;22.962;2022-10-26T05:00:31;15.80;99.90
25622;DHT22;13487;39.360;22.962;2022-10-26T05:03:05;15.90;99.90
25622;DHT22;13487;39.360;22.962;2022-10-26T05:05:33;16.10;99.90
25622;DHT22;13487;39.360;22.962;2022-10-26T05:07:59;16.10;99.90
25622;DHT22;13487;39.360;22.962;2022-10-26T05:10:25;16.20;99.90
25622;DHT22;13487;39.360;22.962;2022-10-26T05:12:56;16.30;99.90
25622;DHT22;13487;39.360;22.962;2022-10-26T05:15:23;16.40;99.90
25622;DHT22;13487;39.360;22.962;2022-10-26T05:17:59;16.50;99.90
25622;DHT22;13487;39.360;22.962;2022-10-26T05:20:27;16.50;99.90
25622;DHT22;13487;39.360;22.962;2022-10-26T05:22:59;16.50;99.90
25622;DHT22;13487;39.360;22.962;2022-10-26T05:25:27;16.50;99.90
25622;DHT22;13487;39.360;22.962;2022-10-26T05:28:00;16.60;99.90
25622;DHT22;13487;39.360;22.962;2022-10-26T05:30:27;16.60;99.90
25622;DHT22;13487;39.360;22.962;2022-10-26T05:32:54;16.60;99.90
25622;DHT22;13487;39.360;22.962;2022-10-26T05:35:20;16.90;99.90
25622;DHT22;13487;39.360;22.962;2022-10-26T05:37:45;16.90;99.90
25622;DHT22;13487;39.360;22.962;2022-10-26T05:40:11;17.00;99.90
25622;DHT22;13487;39.360;22.962;2022-10-26T05:42:37;17.40;99.90
25622;DHT22;13487;39.360;22.962;2022-10-26T05:45:03;17.40;99.90
25622;DHT22;13487;39.360;22.962;2022-10-26T05:47:29;17.40;99.90
25622;DHT22;13487;39.360;22.962;2022-10-26T05:49:54;17.40;99.90
25622;DHT22;13487;39.360;22.962;2022-10-26T05:52:20;17.50;99.90
25622;DHT22;13487;39.360;22.962;2022-10-26T05:54:46;17.70;99.90
25622;DHT22;13487;39.360;22.962;2022-10-26T05:57:12;17.60;99.90
25622;DHT22;13487;39.360;22.962;2022-10-26T05:59:38;18.00;99.90
25622;DHT22;13487;39.360;22.962;2022-10-26T06:04:48;18.10;99.90
25622;DHT22;13487;39.360;22.962;2022-10-26T06:07:16;18.40;99.90
25622;DHT22;13487;39.360;22.962;2022-10-26T06:09:42;18.50;99.90
25622;DHT22;13487;39.360;22.962;2022-10-26T06:12:09;18.60;99.90
25622;DHT22;13487;39.360;22.962;2022-10-26T06:14:36;18.20;99.90
25622;DHT22;13487;39.360;22.962;2022-10-26T06:17:24;18.20;99.90
25622;DHT22;13487;39.360;22.962;2022-10-26T06:23:04;18.20;99.90
25622;DHT22;13487;39.360;22.962;2022-10-26T06:30:41;18.10;99.90
25622;DHT22;13487;39.360;22.962;2022-10-26T06:33:11;18.10;99.90
25622;DHT22;13487;39.360;22.962;2022-10-26T06:35:56;18.30;99.90
25622;DHT22;13487;39.360;22.962;2022-10-26T06:38:26;18.30;99.90
25622;DHT22;13487;39.360;22.962;2022-10-26T06:40:55;18.30;99.90
25622;DHT22;13487;39.360;22.962;2022-10-26T06:43:30;18.30;99.90
25622;DHT22;13487;39.360;22.962;2022-10-26T06:46:04;18.40;99.90
25622;DHT22;13487;39.360;22.962;2022-10-26T06:48:42;18.30;99.90
25622;DHT22;13487;39.360;22.962;2022-10-26T06:51:11;18.60;99.90
25622;DHT22;13487;39.360;22.962;2022-10-26T06:54:48;18.40;99.90
25622;DHT22;13487;39.360;22.962;2022-10-26T06:56:48;18.50;99.90
25622;DHT22;13487;39.360;22.962;2022-10-26T07:01:58;18.50;99.90
25622;DHT22;13487;39.360;22.962;2022-10-26T07:04:24;18.50;99.90
25622;DHT22;13487;39.360;22.962;2022-10-26T07:06:50;18.70;99.90
25622;DHT22;13487;39.360;22.962;2022-10-26T07:09:16;19.00;99.90
25622;DHT22;13487;39.360;22.962;2022-10-26T07:11:41;19.00;99.90
25622;DHT22;13487;39.360;22.962;2022-10-26T07:14:07;19.10;99.90
25622;DHT22;13487;39.360;22.962;2022-10-26T07:16:33;19.10;99.90
25622;DHT22;13487;39.360;22.962;2022-10-26T07:18:59;19.20;99.90
25622;DHT22;13487;39.360;22.962;2022-10-26T07:21:24;19.20;99.90
25622;DHT22;13487;39.360;22.962;2022-10-26T07:23:50;19.30;99.90
25622;DHT22;13487;39.360;22.962;2022-10-26T07:26:17;19.50;99.90
25622;DHT22;13487;39.360;22.962;2022-10-26T07:28:42;19.60;99.90
25622;DHT22;13487;39.360;22.962;2022-10-26T07:31:08;19.80;99.90
25622;DHT22;13487;39.360;22.962;2022-10-26T07:33:34;20.00;99.90
25622;DHT22;13487;39.360;22.962;2022-10-26T07:36:00;20.10;99.90
25622;DHT22;13487;39.360;22.962;2022-10-26T07:38:26;20.30;99.90
25622;DHT22;13487;39.360;22.962;2022-10-26T07:40:51;20.20;99.90
25622;DHT22;13487;39.360;22.962;2022-10-26T07:43:18;20.40;99.90
25622;DHT22;13487;39.360;22.962;2022-10-26T07:45:48;20.50;99.90
25622;DHT22;13487;39.360;22.962;2022-10-26T07:48:14;20.70;99.90
25622;DHT22;13487;39.360;22.962;2022-10-26T07:50:40;20.70;99.90
25622;DHT22;13487;39.360;22.962;2022-10-26T07:53:06;21.00;99.90
25622;DHT22;13487;39.360;22.962;2022-10-26T07:55:32;21.20;99.90
25622;DHT22;13487;39.360;22.962;2022-10-26T07:57:57;21.40;99.90
25622;DHT22;13487;39.360;22.962;2022-10-26T08:00:23;21.30;99.90
25622;DHT22;13487;39.360;22.962;2022-10-26T08:02:50;21.30;99.90
25622;DHT22;13487;39.360;22.962;2022-10-26T08:05:16;21.30;99.90
25622;DHT22;13487;39.360;22.962;2022-10-26T08:07:45;21.40;99.90
25622;DHT22;13487;39.360;22.962;2022-10-26T08:10:11;21.40;99.90
25622;DHT22;13487;39.360;22.962;2022-10-26T08:12:38;21.30;99.90
25622;DHT22;13487;39.360;22.962;2022-10-26T08:15:04;21.50;99.90
25622;DHT22;13487;39.360;22.962;2022-10-26T08:17:30;21.70;99.90
25622;DHT22;13487;39.360;22.962;2022-10-26T08:19:56;21.90;99.90
25622;DHT22;13487;39.360;22.962;2022-10-26T08:22:21;22.10;99.90
25622;DHT22;13487;39.360;22.962;2022-10-26T08:24:47;22.20;99.90
25622;DHT22;13487;39.360;22.962;2022-10-26T08:27:13;22.10;99.90
25622;DHT22;13487;39.360;22.962;2022-10-26T08:29:40;22.00;99.90
25622;DHT22;13487;39.360;22.962;2022-10-26T08:32:05;22.00;99.90
25622;DHT22;13487;39.360;22.962;2022-10-26T08:34:31;22.20;99.90
25622;DHT22;13487;39.360;22.962;2022-10-26T08:36:57;22.20;99.90
25622;DHT22;13487;39.360;22.962;2022-10-26T08:39:23;22.40;99.90
25622;DHT22;13487;39.360;22.962;2022-10-26T08:41:52;22.30;99.90
25622;DHT22;13487;39.360;22.962;2022-10-26T08:44:30;22.30;99.90
25622;DHT22;13487;39.360;22.962;2022-10-26T08:49:42;22.50;99.90
25622;DHT22;13487;39.360;22.962;2022-10-26T08:52:14;22.40;99.90
25622;DHT22;13487;39.360;22.962;2022-10-26T08:54:53;22.50;99.90
25622;DHT22;13487;39.360;22.962;2022-10-26T08:57:24;22.70;99.90
25622;DHT22;13487;39.360;22.962;2022-10-26T09:00:01;22.60;99.90
25622;DHT22;13487;39.360;22.962;2022-10-26T09:02:27;22.60;99.90
25622;DHT22;13487;39.360;22.962;2022-10-26T09:04:54;22.90;99.90
25622;DHT22;13487;39.360;22.962;2022-10-26T09:08:00;22.90;99.90
25622;DHT22;13487;39.360;22.962;2022-10-26T09:10:39;23.10;99.90
25622;DHT22;13487;39.360;22.962;2022-10-26T09:16:06;23.30;99.90
25622;DHT22;13487;39.360;22.962;2022-10-26T09:18:59;23.40;99.90
25622;DHT22;13487;39.360;22.962;2022-10-26T09:21:52;23.10;99.90
25622;DHT22;13487;39.360;22.962;2022-10-26T09:29:30;23.30;99.90
25622;DHT22;13487;39.360;22.962;2022-10-26T09:31:59;23.30;99.90
25622;DHT22;13487;39.360;22.962;2022-10-26T09:34:36;23.30;99.90
25622;DHT22;13487;39.360;22.962;2022-10-26T09:37:18;23.30;99.90
25622;DHT22;13487;39.360;22.962;2022-10-26T09:42:44;23.50;99.90
25622;DHT22;13487;39.360;22.962;2022-10-26T09:45:43;23.30;99.90
25622;DHT22;13487;39.360;22.962;2022-10-26T09:50:48;23.30;99.90
25622;DHT22;13487;39.360;22.962;2022-10-26T09:53:14;23.30;99.90
25622;DHT22;13487;39.360;22.962;2022-10-26T09:55:45;23.20;99.90
25622;DHT22;13487;39.360;22.962;2022-10-26T09:58:22;23.10;99.90
25622;DHT22;13487;39.360;22.962;2022-10-26T10:00:49;23.10;99.90
25622;DHT22;13487;39.360;22.962;2022-10-26T10:03:28;23.20;99.90
25622;DHT22;13487;39.360;22.962;2022-10-26T10:06:15;23.10;99.90
25622;DHT22;13487;39.360;22.962;2022-10-26T10:09:11;23.10;99.90
25622;DHT22;13487;39.360;22.962;2022-10-26T10:11:51;23.20;99.90
25622;DHT22;13487;39.360;22.962;2022-10-26T10:14:54;23.20;99.90
25622;DHT22;13487;39.360;22.962;2022-10-26T10:17:35;23.10;99.90
25622;DHT22;13487;39.360;22.962;2022-10-26T10:20:18;23.30;99.90
25622;DHT22;13487;39.360;22.962;2022-10-26T10:23:01;23.20;99.90
25622;DHT22;13487;39.360;22.962;2022-10-26T10:25:36;23.30;99.90
25622;DHT22;13487;39.360;22.962;2022-10-26T10:28:23;23.50;99.90
25622;DHT22;13487;39.360;22.962;2022-10-26T10:31:26;23.60;99.90
25622;DHT22;13487;39.360;22.962;2022-10-26T10:33:54;23.70;99.90
25622;DHT22;13487;39.360;22.962;2022-10-26T10:36:36;23.70;99.90
25622;DHT22;13487;39.360;22.962;2022-10-26T10:39:34;23.50;99.90
25622;DHT22;13487;39.360;22.962;2022-10-26T10:42:31;23.40;99.90
25622;DHT22;13487;39.360;22.962;2022-10-26T10:45:22;23.40;99.90
25622;DHT22;13487;39.360;22.962;2022-10-26T10:50:38;23.50;99.90
25622;DHT22;13487;39.360;22.962;2022-10-26T11:01:34;23.60;99.90
25622;DHT22;13487;39.360;22.962;2022-10-26T11:07:07;23.50;99.90
25622;DHT22;13487;39.360;22.962;2022-10-26T11:09:38;23.60;99.90
25622;DHT22;13487;39.360;22.962;2022-10-26T11:12:51;23.70;99.90
25622;DHT22;13487;39.360;22.962;2022-10-26T11:15:22;23.60;99.90
25622;DHT22;13487;39.360;22.962;2022-10-26T11:18:26;23.70;99.90
25622;DHT22;13487;39.360;22.962;2022-10-26T11:21:22;23.70;99.90
25622;DHT22;13487;39.360;22.962;2022-10-26T11:28:03;23.70;99.90
25622;DHT22;13487;39.360;22.962;2022-10-26T11:30:12;23.60;99.90
25622;DHT22;13487;39.360;22.962;2022-10-26T11:35:59;23.70;99.90
25622;DHT22;13487;39.360;22.962;2022-10-26T11:38:39;23.80;99.90
25622;DHT22;13487;39.360;22.962;2022-10-26T11:41:16;23.80;99.90
25622;DHT22;13487;39.360;22.962;2022-10-26T11:43:45;23.80;99.90
25622;DHT22;13487;39.360;22.962;2022-10-26T11:46:16;23.80;99.90
25622;DHT22;13487;39.360;22.962;2022-10-26T11:51:37;23.80;99.90
25622;DHT22;13487;39.360;22.962;2022-10-26T11:57:10;23.90;99.90
25622;DHT22;13487;39.360;22.962;2022-10-26T11:59:41;23.90;99.90
25622;DHT22;13487;39.360;22.962;2022-10-26T12:02:18;23.90;99.90
25622;DHT22;13487;39.360;22.962;2022-10-26T12:04:49;23.80;99.90
25622;DHT22;13487;39.360;22.962;2022-10-26T12:07:23;24.00;99.90
25622;DHT22;13487;39.360;22.962;2022-10-26T12:09:50;23.90;99.90
25622;DHT22;13487;39.360;22.962;2022-10-26T12:12:40;23.90;99.90
25622;DHT22;13487;39.360;22.962;2022-10-26T12:18:58;23.80;99.90
25622;DHT22;13487;39.360;22.962;2022-10-26T12:21:38;23.80;99.90
25622;DHT22;13487;39.360;22.962;2022-10-26T12:24:28;23.80;99.90
25622;DHT22;13487;39.360;22.962;2022-10-26T12:27:31;23.80;99.90
25622;DHT22;13487;39.360;22.962;2022-10-26T12:30:29;23.80;99.90
25622;DHT22;13487;39.360;22.962;2022-10-26T12:33:28;23.80;99.90
25622;DHT22;13487;39.360;22.962;2022-10-26T12:36:09;23.90;99.90
25622;DHT22;13487;39.360;22.962;2022-10-26T12:39:01;23.90;99.90
25622;DHT22;13487;39.360;22.962;2022-10-26T12:45:01;23.90;99.90
25622;DHT22;13487;39.360;22.962;2022-10-26T12:52:43;23.90;99.90
25622;DHT22;13487;39.360;22.962;2022-10-26T13:03:45;23.40;99.90
25622;DHT22;13487;39.360;22.962;2022-10-26T13:06:29;23.40;99.90
25622;DHT22;13487;39.360;22.962;2022-10-26T13:09:16;23.40;99.90
25622;DHT22;13487;39.360;22.962;2022-10-26T13:11:55;23.50;99.90
25622;DHT22;13487;39.360;22.962;2022-10-26T13:14:30;23.50;99.90
25622;DHT22;13487;39.360;22.962;2022-10-26T13:16:58;23.50;99.90
25622;DHT22;13487;39.360;22.962;2022-10-26T13:19:43;23.40;99.90
25622;DHT22;13487;39.360;22.962;2022-10-26T13:22:19;23.40;99.90
25622;DHT22;13487;39.360;22.962;2022-10-26T13:24:55;23.40;99.90
25622;DHT22;13487;39.360;22.962;2022-10-26T13:27:39;23.40;99.90
25622;DHT22;13487;39.360;22.962;2022-10-26T13:32:57;23.40;99.90
25622;DHT22;13487;39.360;22.962;2022-10-26T13:35:25;23.50;99.90
25622;DHT22;13487;39.360;22.962;2022-10-26T13:37:54;23.50;99.90
25622;DHT22;13487;39.360;22.962;2022-10-26T13:40:25;23.50;99.90
25622;DHT22;13487;39.360;22.962;2022-10-26T13:43:02;23.40;99.90
25622;DHT22;13487;39.360;22.962;2022-10-26T13:45:36;23.40;99.90
25622;DHT22;13487;39.360;22.962;2022-10-26T13:48:10;23.40;99.90
25622;DHT22;13487;39.360;22.962;2022-10-26T13:50:53;23.30;99.90
25622;DHT22;13487;39.360;22.962;2022-10-26T13:56:04;23.20;99.90
25622;DHT22;13487;39.360;22.962;2022-10-26T13:58:40;23.10;99.90
25622;DHT22;13487;39.360;22.962;2022-10-26T14:01:19;23.10;99.90
25622;DHT22;13487;39.360;22.962;2022-10-26T14:03:46;23.10;99.90
25622;DHT22;13487;39.360;22.962;2022-10-26T14:08:53;22.90;99.90
25622;DHT22;13487;39.360;22.962;2022-10-26T14:11:25;23.00;99.90
25622;DHT22;13487;39.360;22.962;2022-10-26T14:13:52;23.00;99.90
25622;DHT22;13487;39.360;22.962;2022-10-26T14:16:19;23.00;99.90
25622;DHT22;13487;39.360;22.962;2022-10-26T14:18:49;23.00;99.90
25622;DHT22;13487;39.360;22.962;2022-10-26T14:21:20;22.90;99.90
25622;DHT22;13487;39.360;22.962;2022-10-26T14:23:57;22.90;99.90
25622;DHT22;13487;39.360;22.962;2022-10-26T14:26:28;22.90;99.90
25622;DHT22;13487;39.360;22.962;2022-10-26T14:28:57;22.80;99.90
25622;DHT22;13487;39.360;22.962;2022-10-26T14:31:28;22.80;99.90
25622;DHT22;13487;39.360;22.962;2022-10-26T14:33:55;22.70;99.90
25622;DHT22;13487;39.360;22.962;2022-10-26T14:36:27;22.70;99.90
25622;DHT22;13487;39.360;22.962;2022-10-26T14:38:58;22.70;99.90
25622;DHT22;13487;39.360;22.962;2022-10-26T14:41:25;22.60;99.90
25622;DHT22;13487;39.360;22.962;2022-10-26T14:43:55;22.60;99.90
25622;DHT22;13487;39.360;22.962;2022-10-26T14:46:22;22.60;99.90
25622;DHT22;13487;39.360;22.962;2022-10-26T14:48:59;22.40;99.90
25622;DHT22;13487;39.360;22.962;2022-10-26T14:51:33;22.30;99.90
25622;DHT22;13487;39.360;22.962;2022-10-26T14:54:00;22.20;99.90
25622;DHT22;13487;39.360;22.962;2022-10-26T14:58:56;22.10;99.90
25622;DHT22;13487;39.360;22.962;2022-10-26T15:01:25;22.10;99.90
25622;DHT22;13487;39.360;22.962;2022-10-26T15:04:06;22.10;99.90
25622;DHT22;13487;39.360;22.962;2022-10-26T15:06:38;22.00;99.90
25622;DHT22;13487;39.360;22.962;2022-10-26T15:09:15;21.90;99.90
25622;DHT22;13487;39.360;22.962;2022-10-26T15:11:52;21.90;99.90
25622;DHT22;13487;39.360;22.962;2022-10-26T15:14:18;21.80;99.90
25622;DHT22;13487;39.360;22.962;2022-10-26T15:16:51;21.80;99.90
25622;DHT22;13487;39.360;22.962;2022-10-26T15:19:20;21.60;99.90
25622;DHT22;13487;39.360;22.962;2022-10-26T15:21:49;21.60;99.90
25622;DHT22;13487;39.360;22.962;2022-10-26T15:24:36;21.60;99.90
25622;DHT22;13487;39.360;22.962;2022-10-26T15:27:12;21.50;99.90
25622;DHT22;13487;39.360;22.962;2022-10-26T15:29:44;21.50;99.90
25622;DHT22;13487;39.360;22.962;2022-10-26T15:32:31;21.40;99.90
25622;DHT22;13487;39.360;22.962;2022-10-26T15:37:36;21.30;99.90
25622;DHT22;13487;39.360;22.962;2022-10-26T15:40:02;21.30;99.90
25622;DHT22;13487;39.360;22.962;2022-10-26T15:42:28;21.20;99.90
25622;DHT22;13487;39.360;22.962;2022-10-26T15:44:54;21.20;99.90
25622;DHT22;13487;39.360;22.962;2022-10-26T15:47:32;21.30;99.90
25622;DHT22;13487;39.360;22.962;2022-10-26T15:49:59;21.20;99.90
25622;DHT22;13487;39.360;22.962;2022-10-26T15:52:24;21.10;99.90
25622;DHT22;13487;39.360;22.962;2022-10-26T15:54:50;21.10;99.90
25622;DHT22;13487;39.360;22.962;2022-10-26T15:57:16;21.10;99.90
25622;DHT22;13487;39.360;22.962;2022-10-26T15:59:42;21.10;99.90
25622;DHT22;13487;39.360;22.962;2022-10-26T16:02:17;21.20;99.90
25622;DHT22;13487;39.360;22.962;2022-10-26T16:04:42;21.10;99.90
25622;DHT22;13487;39.360;22.962;2022-10-26T16:07:15;21.10;99.90
25622;DHT22;13487;39.360;22.962;2022-10-26T16:09:41;21.20;99.90
25622;DHT22;13487;39.360;22.962;2022-10-26T16:12:12;21.30;99.90
25622;DHT22;13487;39.360;22.962;2022-10-26T16:14:39;21.20;99.90
25622;DHT22;13487;39.360;22.962;2022-10-26T16:17:05;21.10;99.90
25622;DHT22;13487;39.360;22.962;2022-10-26T16:19:32;21.10;99.90
25622;DHT22;13487;39.360;22.962;2022-10-26T16:21:59;20.90;99.90
25622;DHT22;13487;39.360;22.962;2022-10-26T16:24:28;20.80;99.90
25622;DHT22;13487;39.360;22.962;2022-10-26T16:26:55;20.70;99.90
25622;DHT22;13487;39.360;22.962;2022-10-26T16:29:21;20.70;99.90
25622;DHT22;13487;39.360;22.962;2022-10-26T16:31:47;20.60;99.90
25622;DHT22;13487;39.360;22.962;2022-10-26T16:34:13;20.50;99.90
25622;DHT22;13487;39.360;22.962;2022-10-26T16:36:39;20.40;99.90
25622;DHT22;13487;39.360;22.962;2022-10-26T16:39:05;20.30;99.90
25622;DHT22;13487;39.360;22.962;2022-10-26T16:41:31;20.30;99.90
25622;DHT22;13487;39.360;22.962;2022-10-26T16:43:58;20.40;99.90
25622;DHT22;13487;39.360;22.962;2022-10-26T16:46:24;20.40;99.90
25622;DHT22;13487;39.360;22.962;2022-10-26T16:48:50;20.30;99.90
25622;DHT22;13487;39.360;22.962;2022-10-26T16:51:24;20.20;99.90
25622;DHT22;13487;39.360;22.962;2022-10-26T16:53:52;20.20;99.90
25622;DHT22;13487;39.360;22.962;2022-10-26T16:56:24;20.20;99.90
25622;DHT22;13487;39.360;22.962;2022-10-26T16:58:50;20.10;99.90
25622;DHT22;13487;39.360;22.962;2022-10-26T17:01:18;20.10;99.90
25622;DHT22;13487;39.360;22.962;2022-10-26T17:03:45;20.00;99.90
25622;DHT22;13487;39.360;22.962;2022-10-26T17:06:11;20.00;99.90
25622;DHT22;13487;39.360;22.962;2022-10-26T17:08:37;19.90;99.90
25622;DHT22;13487;39.360;22.962;2022-10-26T17:11:04;19.90;99.90
25622;DHT22;13487;39.360;22.962;2022-10-26T17:13:30;19.90;99.90
25622;DHT22;13487;39.360;22.962;2022-10-26T17:16:04;19.90;99.90
25622;DHT22;13487;39.360;22.962;2022-10-26T17:18:31;19.80;99.90
25622;DHT22;13487;39.360;22.962;2022-10-26T17:20:56;19.70;99.90
25622;DHT22;13487;39.360;22.962;2022-10-26T17:23:22;19.60;99.90
25622;DHT22;13487;39.360;22.962;2022-10-26T17:25:48;19.60;99.90
25622;DHT22;13487;39.360;22.962;2022-10-26T17:28:14;19.60;99.90